createdAt,value
2022-10-25T00:06:14.130Z,100397.00
2022-10-25T00:12:59.712Z,100402.25
2022-10-25T00:19:45.126Z,100386.72
2022-10-25T00:26:33.088Z,100456.69
2022-10-25T00:33:18.939Z,100479.94
2022-10-25T00:40:04.315Z,100470.53
2022-10-25T00:46:53.870Z,100476.25
2022-10-25T00:53:41.189Z,100452.22
2022-10-25T01:00:26.659Z,100485.03
2022-10-25T01:07:14.814Z,100474.78
2022-10-25T02:25:20.359Z,100495.63
2022-10-25T02:32:07.074Z,100484.44
2022-10-25T02:38:53.535Z,100484.25
2022-10-25T03:06:23.892Z,100504.88
2022-10-25T03:13:09.280Z,100478.88
2022-10-25T03:19:54.657Z,100492.00
2022-10-25T03:26:42.634Z,100504.16
2022-10-25T03:33:28.893Z,100499.50
2022-10-25T03:40:15.489Z,100503.88
2022-10-25T03:47:03.199Z,100507.72
2022-10-25T03:53:48.567Z,100502.78
2022-10-25T04:00:34.381Z,100513.97
2022-10-25T04:07:22.730Z,100503.09
2022-10-25T04:14:08.549Z,100512.03
2022-10-25T04:20:53.895Z,100521.97
2022-10-25T04:27:41.874Z,100480.88
2022-10-25T04:34:27.206Z,100506.19
2022-10-25T04:41:13.420Z,100514.31
2022-10-25T04:48:02.022Z,100524.38
2022-10-25T04:54:47.366Z,100524.88
2022-10-25T05:01:32.858Z,100527.00
2022-10-25T05:08:20.895Z,100533.31
2022-10-25T05:15:06.675Z,100535.44
2022-10-25T05:21:52.050Z,100551.03
2022-10-25T05:28:42.088Z,100542.41
2022-10-25T05:35:27.804Z,100559.00
2022-10-25T05:42:13.233Z,100550.25
2022-10-25T05:49:03.077Z,100556.75
2022-10-25T05:55:48.452Z,100506.47
2022-10-25T06:02:35.449Z,100558.38
2022-10-25T06:09:23.584Z,100560.13
2022-10-25T06:16:11.271Z,100577.69
2022-10-25T06:22:56.638Z,100595.69
2022-10-25T06:29:44.654Z,100591.97
2022-10-25T06:36:31.194Z,100596.00
2022-10-25T06:43:16.423Z,100620.44
2022-10-25T06:57:12.235Z,100637.28
2022-10-25T07:03:59.575Z,100651.00
2022-10-25T07:10:47.529Z,100657.66
2022-10-25T07:17:32.863Z,100663.06
2022-10-25T07:24:18.306Z,100671.84
2022-10-25T07:31:06.245Z,100659.16
2022-10-25T07:37:51.589Z,100675.25
2022-10-25T07:44:37.037Z,100679.66
2022-10-25T07:51:25.265Z,100589.56
2022-10-25T07:58:14.238Z,100681.94
2022-10-25T08:04:59.620Z,100694.47
2022-10-25T08:11:47.584Z,100684.53
2022-10-25T08:18:33.298Z,100685.84
2022-10-25T08:25:20.675Z,100704.88
2022-10-25T08:32:10.564Z,100706.81
2022-10-25T08:38:55.923Z,100717.84
2022-10-25T08:45:50.144Z,100699.41
2022-10-25T08:52:44.816Z,100716.97
2022-10-25T08:59:35.091Z,100718.25
2022-10-25T09:06:33.425Z,100722.78
2022-10-25T09:20:51.416Z,100726.69
2022-10-25T09:27:40.778Z,100729.22
2022-10-25T09:34:34.233Z,100725.59
2022-10-25T09:41:26.097Z,100742.94
2022-10-25T09:48:20.541Z,100732.50
2022-10-25T09:55:34.781Z,100733.00
2022-10-25T10:02:27.122Z,100751.22
2022-10-25T10:09:17.565Z,100742.88
2022-10-25T10:16:14.069Z,100736.81
2022-10-25T10:23:02.712Z,100739.34
2022-10-25T10:29:59.869Z,100738.19
2022-10-25T10:36:50.126Z,100748.75
2022-10-25T10:43:36.867Z,100741.78
2022-10-25T10:50:30.402Z,100728.41
2022-10-25T10:57:32.853Z,100728.06
2022-10-25T11:04:18.220Z,100735.97
2022-10-25T11:11:19.629Z,100736.44
2022-10-25T11:18:09.901Z,100658.53
2022-10-25T11:25:17.675Z,100734.44
2022-10-25T11:32:25.202Z,100743.25
2022-10-25T11:39:30.214Z,100732.22
2022-10-25T11:46:26.898Z,100712.75
2022-10-25T11:53:44.618Z,100739.19
2022-10-25T12:00:45.760Z,100707.50
2022-10-25T12:07:39.629Z,100742.00
2022-10-25T12:14:33.250Z,100734.34
2022-10-25T12:21:27.885Z,100740.94
2022-10-25T12:28:24.811Z,100708.00
2022-10-25T12:35:23.595Z,100705.97
2022-10-25T12:42:19.138Z,100713.34
2022-10-25T12:49:27.829Z,100702.50
2022-10-25T12:56:31.546Z,100706.06
2022-10-25T13:04:13.737Z,100701.50
2022-10-25T13:11:04.451Z,100672.50
2022-10-25T13:18:06.181Z,100689.78
2022-10-25T13:24:54.169Z,100687.41
2022-10-25T13:31:51.691Z,100682.69
2022-10-25T13:38:40.215Z,100671.28
2022-10-25T13:45:37.674Z,100584.59
2022-10-25T13:52:28.809Z,100674.59
2022-10-25T13:59:53.689Z,100669.47
2022-10-25T14:06:43.803Z,100664.44
2022-10-25T14:13:39.245Z,100564.13
2022-10-25T14:20:31.377Z,100664.22
2022-10-25T14:27:37.553Z,100652.72
2022-10-25T14:34:25.701Z,100669.16
2022-10-25T14:41:15.980Z,100672.22
2022-10-25T14:48:12.578Z,100643.97
2022-10-25T14:55:03.168Z,100648.47
2022-10-25T15:01:56.973Z,100601.56
2022-10-25T15:08:51.639Z,100647.47
2022-10-25T15:15:44.687Z,100652.44
2022-10-25T15:22:34.302Z,100633.31
2022-10-25T15:36:54.281Z,100647.84
2022-10-25T15:43:39.635Z,100645.56
2022-10-25T15:50:28.615Z,100634.59
2022-10-25T15:57:14.167Z,100652.38
2022-10-25T16:03:59.550Z,100643.22
2022-10-25T16:10:47.805Z,100628.72
2022-10-25T16:17:33.265Z,100637.38
2022-10-25T16:24:19.667Z,100649.06
2022-10-25T16:31:07.894Z,100629.38
2022-10-25T16:37:53.642Z,100624.34
2022-10-25T16:44:39.098Z,100639.03
2022-10-25T16:51:28.824Z,100637.22
2022-10-25T16:58:14.386Z,100627.78
2022-10-25T17:04:59.927Z,100622.31
2022-10-25T17:11:48.593Z,100611.81
2022-10-25T17:18:35.836Z,100624.38
2022-10-25T17:25:21.334Z,100603.44
2022-10-25T17:32:09.797Z,100607.75
2022-10-25T17:38:55.462Z,100598.50
2022-10-25T17:45:40.855Z,100601.66
2022-10-25T17:52:28.817Z,100592.72
2022-10-25T17:59:14.389Z,100591.91
2022-10-25T18:06:03.764Z,100580.44
2022-10-25T18:12:51.953Z,100571.22
2022-10-25T18:19:37.434Z,100590.69
2022-10-25T18:26:22.906Z,100524.63
2022-10-25T18:33:14.660Z,100586.34
2022-10-25T18:40:00.147Z,100583.25
2022-10-25T18:46:50.716Z,100586.19
2022-10-25T18:53:39.584Z,100587.56
2022-10-25T19:00:27.684Z,100577.84
2022-10-25T19:07:13.037Z,100577.75
2022-10-25T19:14:02.199Z,100580.06
2022-10-25T19:20:47.760Z,100563.53
2022-10-25T19:27:33.154Z,100570.25
2022-10-25T19:34:21.505Z,100573.69
2022-10-25T19:41:09.172Z,100561.66
2022-10-25T19:47:56.939Z,100563.06
2022-10-25T19:54:46.402Z,100554.50
2022-10-25T20:01:32.249Z,100565.13
2022-10-25T20:08:17.706Z,100570.47
2022-10-25T20:15:05.760Z,100565.13
2022-10-25T20:21:51.201Z,100542.91
2022-10-25T20:28:36.573Z,100555.78
2022-10-25T20:35:26.947Z,100547.66
2022-10-25T20:42:12.521Z,100551.72
2022-10-25T20:48:59.434Z,100538.75
2022-10-25T20:55:48.475Z,100538.16
2022-10-25T21:02:33.933Z,100538.88
2022-10-25T21:09:19.490Z,100533.91
2022-10-25T21:16:12.826Z,100495.03
2022-10-25T21:22:59.255Z,100510.88
2022-10-25T21:29:44.657Z,100509.38
2022-10-25T21:36:32.641Z,100509.38
2022-10-25T21:43:18.026Z,100508.91
2022-10-25T21:50:03.395Z,100512.16
2022-10-25T21:56:52.683Z,100478.72
2022-10-25T22:03:38.145Z,100510.50
2022-10-25T22:10:23.606Z,100505.91
2022-10-25T22:17:11.620Z,100497.09
2022-10-25T22:23:56.995Z,100499.56
2022-10-25T22:30:42.307Z,100489.56
2022-10-25T22:37:30.267Z,100483.00
2022-10-25T22:44:15.801Z,100492.59
2022-10-25T22:51:02.155Z,100493.97
2022-10-25T22:57:50.300Z,100493.13
2022-10-25T23:04:35.945Z,100477.88
2022-10-25T23:11:23.378Z,100478.69
2022-10-25T23:18:11.325Z,100480.41
2022-10-25T23:24:56.830Z,100486.09
2022-10-25T23:31:42.532Z,100475.66
2022-10-25T23:38:30.479Z,100478.38
2022-10-25T23:45:15.999Z,100467.94
2022-10-25T23:52:01.568Z,100470.41
2022-10-25T23:58:53.384Z,100447.63
